Time;durP1;ratioP1;P1;durP2;ratioP2;P2;SDS_P1;SDS_P2;PMS_P1;PMS_P2;Temp;Humidity;BMP_temperature;BMP_pressure;BME280_temperature;BME280_humidity;BME280_pressure;Samples;Min_cycle;Max_cycle;Signal;HPM_P1;HPM_P2
2022/06/29 00:02:01;;;;;;;5.82;3.95;;;11.70;99.90;;;;;;5014801;28;20026;-69
2022/06/29 00:04:27;;;;;;;5.72;3.60;;;11.60;99.90;;;;;;5014104;28;20026;-69
2022/06/29 00:06:52;;;;;;;8.77;4.78;;;11.60;99.90;;;;;;5014375;28;20466;-69
2022/06/29 00:09:18;;;;;;;6.47;4.47;;;11.60;99.90;;;;;;5014613;28;20030;-69
2022/06/29 00:11:43;;;;;;;6.53;4.03;;;11.60;99.90;;;;;;5014117;28;20034;-69
2022/06/29 00:14:09;;;;;;;6.38;4.30;;;11.60;99.90;;;;;;5014439;28;20022;-69
2022/06/29 00:16:34;;;;;;;8.75;4.80;;;11.60;99.90;;;;;;5013906;28;20061;-69
2022/06/29 00:19:00;;;;;;;10.63;5.38;;;11.60;99.90;;;;;;5014185;28;20390;-69
2022/06/29 00:21:25;;;;;;;5.43;4.93;;;11.50;99.90;;;;;;5014073;28;20072;-69
2022/06/29 00:23:51;;;;;;;10.00;5.40;;;11.60;99.90;;;;;;5014586;28;20025;-69
2022/06/29 00:26:16;;;;;;;6.10;4.22;;;11.50;99.90;;;;;;5013883;28;20061;-69
2022/06/29 00:28:42;;;;;;;9.32;4.95;;;11.60;99.90;;;;;;5014113;28;20093;-69
2022/06/29 00:31:08;;;;;;;7.97;4.82;;;11.60;99.90;;;;;;5013979;28;20032;-69
2022/06/29 00:33:33;;;;;;;9.80;5.07;;;11.60;99.90;;;;;;5013958;28;20053;-69
2022/06/29 00:35:59;;;;;;;13.60;6.90;;;11.60;99.90;;;;;;5015425;28;20057;-69
2022/06/29 00:38:24;;;;;;;12.90;7.20;;;11.60;99.90;;;;;;5017801;28;20030;-69
2022/06/29 00:40:50;;;;;;;10.32;5.72;;;11.60;99.90;;;;;;5017732;28;20037;-68
2022/06/29 00:43:15;;;;;;;7.35;6.43;;;11.60;99.90;;;;;;5017718;28;20026;-68
2022/06/29 00:45:41;;;;;;;12.73;6.90;;;11.60;99.90;;;;;;5017818;28;20382;-68
2022/06/29 00:48:07;;;;;;;9.35;7.63;;;11.60;99.90;;;;;;5017396;28;20054;-68
2022/06/29 00:50:33;;;;;;;12.10;8.02;;;11.60;99.90;;;;;;5017996;28;20018;-68
2022/06/29 00:53:03;;;;;;;13.55;7.28;;;11.60;99.90;;;;;;5000471;28;20026;-68
2022/06/29 00:55:31;;;;;;;11.98;7.90;;;11.60;99.90;;;;;;5017402;28;20478;-67
2022/06/29 00:58:00;;;;;;;10.40;8.85;;;11.60;99.90;;;;;;5017359;28;20132;-67
2022/06/29 01:00:26;;;;;;;8.93;8.00;;;11.60;99.90;;;;;;5017106;28;20088;-67
2022/06/29 01:02:52;;;;;;;13.60;9.60;;;11.60;99.90;;;;;;5017946;28;20386;-67
2022/06/29 01:05:17;;;;;;;11.82;10.50;;;11.60;99.90;;;;;;4999952;28;20029;-68
2022/06/29 01:07:43;;;;;;;13.70;10.40;;;11.60;99.90;;;;;;5017560;28;20073;-67
2022/06/29 01:10:09;;;;;;;14.85;11.02;;;11.70;99.90;;;;;;5017004;28;20490;-67
2022/06/29 01:12:35;;;;;;;14.02;9.95;;;11.70;99.90;;;;;;5017688;28;20037;-67
2022/06/29 01:15:01;;;;;;;11.40;9.68;;;11.70;99.90;;;;;;5017116;28;20093;-67
2022/06/29 01:17:26;;;;;;;22.23;11.35;;;11.60;99.90;;;;;;5017046;28;20096;-67
2022/06/29 01:19:52;;;;;;;11.77;10.45;;;11.60;99.90;;;;;;5017074;28;20026;-67
2022/06/29 01:22:20;;;;;;;17.17;12.20;;;11.60;99.90;;;;;;5017086;28;20025;-68
2022/06/29 01:24:46;;;;;;;15.50;12.10;;;11.60;99.90;;;;;;5016994;28;20430;-67
2022/06/29 01:27:13;;;;;;;17.77;12.60;;;11.60;99.90;;;;;;5016759;28;20032;-67
2022/06/29 01:29:39;;;;;;;13.77;11.13;;;11.60;99.90;;;;;;5016812;28;20034;-67
2022/06/29 01:32:06;;;;;;;14.63;10.80;;;11.50;99.90;;;;;;5016975;28;20030;-67
2022/06/29 01:34:32;;;;;;;14.15;11.60;;;11.50;99.90;;;;;;5016525;28;20054;-68
2022/06/29 01:36:59;;;;;;;13.05;10.98;;;11.50;99.90;;;;;;5016459;28;20470;-67
2022/06/29 01:39:25;;;;;;;16.05;12.15;;;11.50;99.90;;;;;;5016757;28;20022;-67
2022/06/29 01:41:51;;;;;;;13.63;11.00;;;11.50;99.90;;;;;;5016696;28;20029;-67
2022/06/29 01:44:17;;;;;;;13.85;11.60;;;11.40;99.90;;;;;;5016473;28;20030;-67
2022/06/29 01:46:42;;;;;;;12.63;10.45;;;11.50;99.90;;;;;;5015735;28;20029;-67
2022/06/29 01:49:08;;;;;;;13.75;11.05;;;11.40;99.90;;;;;;5017013;28;20105;-67
2022/06/29 01:51:34;;;;;;;15.88;12.23;;;11.40;99.90;;;;;;5016577;28;20470;-67
2022/06/29 01:54:00;;;;;;;15.55;12.38;;;11.40;99.90;;;;;;5016516;28;20022;-68
2022/06/29 01:56:25;;;;;;;14.82;11.30;;;11.50;99.90;;;;;;5016608;28;20026;-67
2022/06/29 01:58:51;;;;;;;17.15;12.93;;;11.30;99.90;;;;;;5015989;28;20065;-67
2022/06/29 02:01:16;;;;;;;15.73;12.27;;;11.30;99.90;;;;;;5016740;28;20026;-67
2022/06/29 02:03:42;;;;;;;13.13;11.68;;;11.30;99.90;;;;;;5016285;28;20475;-67
2022/06/29 02:06:08;;;;;;;13.70;12.30;;;11.30;99.90;;;;;;5016387;28;20030;-68
2022/06/29 02:08:33;;;;;;;14.50;12.40;;;11.30;99.90;;;;;;5015985;28;20096;-67
2022/06/29 02:11:00;;;;;;;19.25;12.35;;;11.20;99.90;;;;;;5016087;28;20045;-67
2022/06/29 02:13:26;;;;;;;14.27;12.68;;;11.20;99.90;;;;;;5016374;28;20378;-67
2022/06/29 02:15:52;;;;;;;15.38;12.40;;;11.20;99.90;;;;;;5015785;28;20029;-67
2022/06/29 02:18:17;;;;;;;15.05;10.48;;;11.20;99.90;;;;;;5015917;28;20433;-67
2022/06/29 02:20:43;;;;;;;13.32;10.93;;;11.20;99.90;;;;;;5016203;28;20032;-67
2022/06/29 02:23:09;;;;;;;14.63;12.13;;;11.30;99.90;;;;;;5016079;28;20061;-67
2022/06/29 02:25:34;;;;;;;13.93;11.15;;;11.10;99.90;;;;;;5015733;28;20038;-67
2022/06/29 02:28:00;;;;;;;14.80;10.48;;;11.10;99.90;;;;;;5015678;28;20021;-67
2022/06/29 02:35:56;;;;;;;13.55;10.45;;;11.00;99.90;;;;;;5015814;28;20029;-67
2022/06/29 02:38:21;;;;;;;11.48;10.07;;;11.00;99.90;;;;;;5015509;28;20029;-67
2022/06/29 02:40:47;;;;;;;17.77;10.57;;;11.00;99.90;;;;;;5015499;28;20030;-67
2022/06/29 02:43:12;;;;;;;15.00;10.98;;;10.90;99.90;;;;;;5015273;28;20057;-67
2022/06/29 02:45:38;;;;;;;12.75;10.13;;;10.90;99.90;;;;;;5015479;28;20451;-67
2022/06/29 02:48:04;;;;;;;12.75;9.77;;;10.90;99.90;;;;;;5015594;28;20103;-67
2022/06/29 02:50:29;;;;;;;13.40;10.35;;;10.80;99.90;;;;;;5015467;28;20026;-67
2022/06/29 02:52:55;;;;;;;15.50;10.43;;;10.80;99.90;;;;;;5015313;28;20028;-67
2022/06/29 02:55:20;;;;;;;14.80;12.00;;;10.80;99.90;;;;;;5015394;28;20383;-67
2022/06/29 02:57:46;;;;;;;14.70;11.82;;;10.80;99.90;;;;;;5014884;28;20458;-67
2022/06/29 03:00:13;;;;;;;14.68;10.82;;;10.80;99.90;;;;;;5014351;28;20399;-67
2022/06/29 03:02:39;;;;;;;15.70;12.55;;;10.80;99.90;;;;;;5015758;28;20109;-67
2022/06/29 03:05:05;;;;;;;18.38;13.45;;;10.80;99.90;;;;;;5014920;28;20605;-67
2022/06/29 03:07:31;;;;;;;16.30;12.30;;;10.80;99.90;;;;;;5015012;28;20109;-67
2022/06/29 03:09:57;;;;;;;13.20;11.48;;;10.80;99.90;;;;;;4997248;28;20137;-67
2022/06/29 03:12:22;;;;;;;14.68;12.52;;;10.80;99.90;;;;;;5014905;28;20030;-67
2022/06/29 03:14:48;;;;;;;18.08;12.40;;;10.80;99.90;;;;;;5014880;28;20493;-67
2022/06/29 03:17:13;;;;;;;17.02;12.93;;;10.90;99.90;;;;;;5014621;28;20458;-67
2022/06/29 03:19:39;;;;;;;17.15;13.00;;;10.80;99.90;;;;;;5014785;28;20442;-67
2022/06/29 03:22:04;;;;;;;15.18;13.20;;;10.80;99.90;;;;;;5014802;28;20048;-67
2022/06/29 03:24:30;;;;;;;16.80;12.88;;;10.90;99.90;;;;;;5015253;28;20084;-67
2022/06/29 03:26:56;;;;;;;16.27;13.43;;;10.70;99.90;;;;;;5014974;28;20517;-68
2022/06/29 03:29:21;;;;;;;17.38;13.80;;;10.90;99.90;;;;;;5014803;28;20037;-67
2022/06/29 03:31:47;;;;;;;17.33;14.48;;;11.00;99.90;;;;;;5015156;28;20018;-67
2022/06/29 03:34:12;;;;;;;21.13;14.68;;;11.00;99.90;;;;;;5014770;28;20026;-67
2022/06/29 03:36:38;;;;;;;18.15;13.82;;;11.00;99.90;;;;;;5014446;28;20064;-67
2022/06/29 03:39:04;;;;;;;19.05;15.88;;;11.10;99.90;;;;;;5014451;28;20040;-67
2022/06/29 03:41:30;;;;;;;24.05;15.70;;;11.10;99.90;;;;;;5014414;28;20037;-67
2022/06/29 03:43:55;;;;;;;22.33;15.93;;;11.10;99.90;;;;;;4996742;28;20494;-68
2022/06/29 03:46:21;;;;;;;18.58;14.57;;;11.10;99.90;;;;;;5014450;28;20037;-67
2022/06/29 03:48:47;;;;;;;17.92;15.23;;;11.20;99.90;;;;;;5014317;28;20098;-67
2022/06/29 03:51:12;;;;;;;17.88;13.68;;;11.30;99.90;;;;;;5014294;28;20018;-67
2022/06/29 03:53:38;;;;;;;21.23;14.52;;;11.30;99.90;;;;;;5014564;28;20026;-67
2022/06/29 03:56:03;;;;;;;22.05;17.02;;;11.40;99.90;;;;;;5014143;28;20022;-68
2022/06/29 03:58:29;;;;;;;27.02;17.30;;;11.40;99.90;;;;;;5014312;28;20113;-68
2022/06/29 04:00:55;;;;;;;22.92;17.65;;;11.50;99.90;;;;;;5014415;28;20025;-68
2022/06/29 04:03:20;;;;;;;21.80;18.50;;;11.60;99.90;;;;;;5014481;28;20030;-68
2022/06/29 04:05:46;;;;;;;19.08;16.05;;;11.70;99.90;;;;;;5014231;28;20061;-68
2022/06/29 04:08:11;;;;;;;21.08;16.42;;;11.70;99.90;;;;;;5013931;28;20038;-69
2022/06/29 04:10:37;;;;;;;21.15;16.48;;;11.80;99.90;;;;;;5013943;28;20084;-68
2022/06/29 04:13:02;;;;;;;24.40;16.83;;;11.80;99.90;;;;;;5014054;28;20022;-68
2022/06/29 04:15:28;;;;;;;17.63;14.23;;;11.90;99.90;;;;;;5014102;28;20025;-68
2022/06/29 04:17:53;;;;;;;20.27;15.63;;;12.00;99.90;;;;;;5013785;28;20474;-68
2022/06/29 04:23:03;;;;;;;20.73;17.00;;;12.20;99.90;;;;;;5013980;28;20084;-68
2022/06/29 04:25:29;;;;;;;21.20;16.73;;;12.30;99.90;;;;;;5014405;28;20030;-68
2022/06/29 04:27:55;;;;;;;24.58;19.13;;;12.30;99.90;;;;;;5014319;28;20034;-69
2022/06/29 04:30:21;;;;;;;23.00;17.67;;;12.50;99.90;;;;;;5013915;28;20433;-68
2022/06/29 04:32:46;;;;;;;22.70;18.58;;;12.60;99.90;;;;;;5014101;28;20029;-68
2022/06/29 04:35:12;;;;;;;21.35;16.33;;;12.80;99.90;;;;;;4996153;28;20022;-69
2022/06/29 04:37:38;;;;;;;26.92;17.48;;;12.80;99.90;;;;;;5013811;28;20022;-68
2022/06/29 04:40:04;;;;;;;22.55;17.38;;;12.90;99.90;;;;;;5014129;28;20026;-68
2022/06/29 04:42:30;;;;;;;23.60;19.48;;;13.00;99.90;;;;;;5013675;28;20109;-68
2022/06/29 04:44:56;;;;;;;19.63;17.23;;;13.10;99.90;;;;;;5013653;28;20061;-68
2022/06/29 04:47:21;;;;;;;22.17;16.45;;;13.20;99.90;;;;;;5013772;28;20049;-68
2022/06/29 04:49:47;;;;;;;25.50;16.35;;;13.40;99.90;;;;;;5014008;28;20026;-68
2022/06/29 04:52:13;;;;;;;28.20;19.77;;;13.60;99.90;;;;;;5013733;28;20018;-68
2022/06/29 04:54:39;;;;;;;23.58;17.65;;;13.70;99.90;;;;;;5013686;28;20053;-68
2022/06/29 04:57:06;;;;;;;29.35;18.27;;;13.90;99.90;;;;;;5013377;28;20065;-68
2022/06/29 04:59:32;;;;;;;20.52;16.45;;;14.00;99.90;;;;;;5013804;28;20101;-68
2022/06/29 05:01:58;;;;;;;39.83;20.67;;;14.20;99.90;;;;;;5013449;28;20057;-68
2022/06/29 05:04:23;;;;;;;25.90;19.38;;;14.30;99.90;;;;;;5013765;28;20026;-68
2022/06/29 05:06:49;;;;;;;24.52;18.80;;;14.50;99.90;;;;;;5013248;28;20022;-68
2022/06/29 05:09:15;;;;;;;24.65;17.95;;;14.60;99.90;;;;;;5013355;28;20030;-67
2022/06/29 05:11:40;;;;;;;25.48;19.42;;;14.70;99.90;;;;;;5012252;28;20018;-68
2022/06/29 05:14:06;;;;;;;22.65;18.88;;;14.80;99.90;;;;;;5013378;28;20490;-68
2022/06/29 05:16:31;;;;;;;23.98;20.42;;;15.00;99.90;;;;;;5013254;28;20022;-68
2022/06/29 05:18:57;;;;;;;30.77;20.75;;;15.20;99.90;;;;;;5013642;28;20463;-68
2022/06/29 05:21:22;;;;;;;36.88;17.88;;;15.30;99.90;;;;;;5013412;28;20026;-68
2022/06/29 05:23:48;;;;;;;24.27;17.42;;;15.50;99.90;;;;;;5016878;28;20022;-68
2022/06/29 05:26:14;;;;;;;23.63;15.85;;;15.50;99.90;;;;;;5016829;28;20100;-68
2022/06/29 05:28:40;;;;;;;20.25;15.35;;;15.60;99.90;;;;;;5016934;28;20101;-68
2022/06/29 05:31:05;;;;;;;22.73;13.63;;;15.80;99.90;;;;;;5016779;28;20113;-68
2022/06/29 05:33:36;;;;;;;17.25;12.98;;;15.80;99.90;;;;;;5016942;28;20026;-68
2022/06/29 05:36:06;;;;;;;14.57;13.02;;;16.00;99.90;;;;;;5017069;28;20018;-68
2022/06/29 05:38:32;;;;;;;18.42;12.43;;;16.10;99.90;;;;;;5016891;28;20060;-68
2022/06/29 05:41:00;;;;;;;17.38;10.75;;;16.20;99.90;;;;;;5016864;28;20490;-68
2022/06/29 05:43:26;;;;;;;13.63;9.20;;;16.30;99.90;;;;;;5016699;28;20065;-69
2022/06/29 05:45:52;;;;;;;14.30;10.25;;;16.40;99.90;;;;;;5016890;28;20045;-69
2022/06/29 05:48:17;;;;;;;11.70;8.38;;;16.60;99.90;;;;;;5016710;28;20188;-69
2022/06/29 05:50:43;;;;;;;8.93;7.72;;;16.70;99.90;;;;;;5016827;28;20026;-69
2022/06/29 05:53:08;;;;;;;12.00;8.02;;;16.80;99.90;;;;;;5016552;28;20022;-68
2022/06/29 05:55:34;;;;;;;12.13;7.72;;;16.90;99.90;;;;;;5016484;28;20029;-68
2022/06/29 05:58:00;;;;;;;12.07;7.65;;;17.00;99.90;;;;;;5016416;28;20026;-67
2022/06/29 06:00:25;;;;;;;9.63;6.90;;;17.20;99.90;;;;;;4998659;28;20030;-67
2022/06/29 06:02:51;;;;;;;11.00;6.85;;;17.30;99.90;;;;;;5016251;28;20034;-68
2022/06/29 06:05:17;;;;;;;7.40;5.95;;;17.30;99.90;;;;;;5016046;28;20018;-68
2022/06/29 06:07:43;;;;;;;8.15;5.38;;;17.50;99.90;;;;;;5016117;28;20392;-68
2022/06/29 06:10:09;;;;;;;8.73;5.57;;;17.60;99.90;;;;;;5016021;28;20026;-68
2022/06/29 06:12:34;;;;;;;7.85;5.07;;;17.80;99.90;;;;;;5016165;28;20076;-68
2022/06/29 06:15:01;;;;;;;8.63;4.80;;;17.90;99.90;;;;;;5015972;28;20026;-68
2022/06/29 06:17:28;;;;;;;13.80;4.40;;;18.10;99.90;;;;;;5015903;28;20018;-67
2022/06/29 06:19:55;;;;;;;6.35;3.90;;;18.20;99.90;;;;;;5016145;28;20038;-67
2022/06/29 06:22:21;;;;;;;13.55;4.00;;;18.50;99.90;;;;;;5015880;28;20029;-67
2022/06/29 06:24:47;;;;;;;5.70;3.78;;;18.60;99.90;;;;;;5015803;28;20022;-67
2022/06/29 06:27:13;;;;;;;6.40;3.55;;;18.80;99.90;;;;;;5015787;28;20105;-67
2022/06/29 06:29:39;;;;;;;6.97;3.10;;;19.00;99.90;;;;;;5015616;28;20097;-68
2022/06/29 06:32:05;;;;;;;4.93;2.85;;;19.10;99.90;;;;;;5015731;28;20471;-68
2022/06/29 06:34:31;;;;;;;8.23;3.15;;;19.10;99.90;;;;;;5015756;28;20025;-68
2022/06/29 06:36:57;;;;;;;5.70;3.22;;;19.30;99.90;;;;;;5015467;28;20022;-68
2022/06/29 06:39:23;;;;;;;3.47;2.80;;;19.50;99.90;;;;;;5015373;28;20048;-69
2022/06/29 06:41:48;;;;;;;9.05;2.65;;;19.60;99.90;;;;;;5015618;28;20470;-69
2022/06/29 06:44:14;;;;;;;4.50;2.47;;;19.70;99.90;;;;;;5015456;28;20030;-69
2022/06/29 06:46:41;;;;;;;7.90;2.35;;;19.90;99.90;;;;;;5015111;28;20454;-68
2022/06/29 06:49:08;;;;;;;4.60;2.15;;;19.90;99.90;;;;;;5015199;28;20034;-68
2022/06/29 06:51:33;;;;;;;13.60;3.08;;;20.10;99.90;;;;;;5015200;28;20118;-68
2022/06/29 06:53:59;;;;;;;5.93;2.17;;;20.20;99.90;;;;;;5053814;23;20045;-69
2022/06/29 06:56:25;;;;;;;2.90;2.10;;;20.10;99.90;;;;;;5054922;28;20021;-68
2022/06/29 06:58:51;;;;;;;6.47;1.92;;;20.20;99.90;;;;;;5054510;28;20033;-68
2022/06/29 07:01:16;;;;;;;4.70;2.35;;;20.30;99.90;;;;;;5054569;28;20021;-68
2022/06/29 07:03:42;;;;;;;3.35;1.67;;;20.30;99.90;;;;;;5054444;28;20025;-68
2022/06/29 07:06:09;;;;;;;2.95;1.45;;;20.30;99.90;;;;;;5054773;28;20029;-68
2022/06/29 07:08:37;;;;;;;9.65;2.13;;;20.30;99.90;;;;;;5054368;28;20025;-69
2022/06/29 07:11:04;;;;;;;6.70;2.10;;;20.40;99.90;;;;;;5054342;28;20602;-68
2022/06/29 07:13:33;;;;;;;5.72;1.90;;;20.60;99.90;;;;;;5054447;28;20029;-69
2022/06/29 07:15:59;;;;;;;5.60;1.73;;;20.80;99.90;;;;;;5054079;28;20504;-68
2022/06/29 07:18:25;;;;;;;11.07;1.75;;;21.00;99.90;;;;;;5054508;28;20029;-68
2022/06/29 07:20:51;;;;;;;3.35;1.80;;;21.00;99.90;;;;;;5054228;28;20032;-68
2022/06/29 07:23:17;;;;;;;13.32;1.85;;;21.10;99.90;;;;;;5053921;28;20029;-68
2022/06/29 07:25:42;;;;;;;2.47;1.58;;;21.20;99.90;;;;;;5054385;28;20037;-68
2022/06/29 07:28:08;;;;;;;4.13;1.40;;;21.20;99.90;;;;;;5054020;28;20087;-68
2022/06/29 07:30:34;;;;;;;6.15;1.75;;;21.30;99.90;;;;;;5054080;28;20025;-68
2022/06/29 07:33:00;;;;;;;2.67;1.20;;;21.40;99.90;;;;;;5054179;28;20068;-68
2022/06/29 07:35:26;;;;;;;3.45;1.27;;;21.30;99.90;;;;;;5054002;28;20049;-68
2022/06/29 07:37:53;;;;;;;11.18;1.73;;;21.30;99.90;;;;;;5054484;28;20409;-68
2022/06/29 07:40:19;;;;;;;4.40;1.92;;;21.20;99.90;;;;;;5035771;28;20424;-68
2022/06/29 07:42:45;;;;;;;3.72;1.30;;;21.30;99.90;;;;;;5034199;28;20029;-68
2022/06/29 07:45:11;;;;;;;2.78;1.40;;;21.40;99.90;;;;;;5042604;28;20392;-68
2022/06/29 07:47:36;;;;;;;5.20;1.38;;;21.50;99.90;;;;;;5053776;28;20029;-68
2022/06/29 07:50:04;;;;;;;8.20;2.00;;;21.50;99.90;;;;;;5053727;28;20031;-68
2022/06/29 07:52:32;;;;;;;2.33;1.63;;;21.60;99.90;;;;;;5053697;28;20380;-68
2022/06/29 07:54:58;;;;;;;10.93;1.63;;;21.50;99.90;;;;;;5053474;28;20108;-68
2022/06/29 07:57:24;;;;;;;7.68;1.58;;;21.70;99.90;;;;;;5053667;28;20472;-68
2022/06/29 07:59:49;;;;;;;1.67;1.20;;;21.70;99.90;;;;;;5053552;28;20512;-68
2022/06/29 08:02:15;;;;;;;4.57;1.63;;;21.80;99.90;;;;;;5054111;28;20366;-68
2022/06/29 08:04:41;;;;;;;7.88;1.52;;;21.90;99.90;;;;;;5053280;28;20086;-68
2022/06/29 08:07:06;;;;;;;6.43;1.73;;;22.00;99.90;;;;;;5054015;28;20064;-68
2022/06/29 08:09:32;;;;;;;4.65;1.73;;;22.10;99.90;;;;;;5053367;28;20025;-68
2022/06/29 08:11:58;;;;;;;2.10;1.58;;;22.20;99.90;;;;;;5053424;28;20025;-68
2022/06/29 08:14:23;;;;;;;5.63;1.23;;;22.40;99.90;;;;;;5053407;28;20029;-68
2022/06/29 08:16:49;;;;;;;3.15;1.30;;;22.40;99.90;;;;;;5053319;28;20016;-68
2022/06/29 08:19:15;;;;;;;7.97;2.08;;;22.60;99.90;;;;;;5053306;28;20453;-68
2022/06/29 08:21:40;;;;;;;5.85;1.55;;;22.80;99.90;;;;;;5053138;28;20037;-68
2022/06/29 08:24:06;;;;;;;8.00;1.75;;;22.90;99.90;;;;;;5054006;28;20032;-68
2022/06/29 08:26:31;;;;;;;3.92;2.08;;;23.10;99.90;;;;;;5053165;28;20037;-68
2022/06/29 08:28:57;;;;;;;8.90;1.85;;;23.40;99.90;;;;;;5053409;28;20061;-68
2022/06/29 08:31:22;;;;;;;4.80;1.40;;;23.60;99.90;;;;;;5053185;28;20025;-68
2022/06/29 08:33:48;;;;;;;2.90;1.38;;;23.80;99.90;;;;;;5053040;28;20025;-68
2022/06/29 08:36:14;;;;;;;7.80;1.20;;;23.70;99.90;;;;;;5053119;28;20377;-68
2022/06/29 08:38:39;;;;;;;3.70;1.30;;;23.90;99.90;;;;;;5053114;28;20133;-68
2022/06/29 08:41:06;;;;;;;6.40;1.67;;;23.90;99.90;;;;;;5053354;28;20372;-68
2022/06/29 08:43:32;;;;;;;1.85;1.33;;;24.00;99.90;;;;;;5053038;28;20064;-68
2022/06/29 08:45:58;;;;;;;5.13;1.17;;;24.00;99.90;;;;;;5053275;28;20025;-67
2022/06/29 08:48:24;;;;;;;4.03;1.10;;;24.20;99.90;;;;;;5053277;28;20162;-68
2022/06/29 08:50:53;;;;;;;7.32;1.33;;;24.30;99.90;;;;;;5052903;28;20095;-68
2022/06/29 08:53:19;;;;;;;4.05;1.40;;;24.30;99.90;;;;;;5053082;28;20025;-68
2022/06/29 08:55:47;;;;;;;3.33;1.63;;;24.10;99.90;;;;;;5053268;28;20040;-68
2022/06/29 08:58:25;;;;;;;3.45;1.42;;;23.80;99.90;;;;;;5055969;28;20032;-68
2022/06/29 09:00:51;;;;;;;6.35;1.67;;;23.70;99.90;;;;;;5017528;28;20033;-68
2022/06/29 09:03:18;;;;;;;2.22;1.35;;;23.50;99.90;;;;;;5017323;28;20026;-68
2022/06/29 09:05:55;;;;;;;2.95;1.15;;;23.50;99.90;;;;;;5017370;28;20108;-68
2022/06/29 09:08:21;;;;;;;3.63;1.58;;;23.30;99.90;;;;;;5034070;28;20029;-68
2022/06/29 09:10:47;;;;;;;1.17;1.08;;;23.30;99.90;;;;;;5056998;28;20025;-68
2022/06/29 09:13:24;;;;;;;2.83;1.25;;;23.30;99.90;;;;;;5056127;28;20035;-68
2022/06/29 09:15:59;;;;;;;2.25;1.33;;;23.10;99.90;;;;;;5056524;28;20071;-68
2022/06/29 09:18:31;;;;;;;3.58;1.40;;;23.40;99.90;;;;;;5056552;28;20025;-68
2022/06/29 09:20:58;;;;;;;5.20;1.60;;;24.20;99.90;;;;;;5056892;28;20017;-68
2022/06/29 09:23:25;;;;;;;6.68;1.60;;;25.10;99.90;;;;;;5055790;28;20432;-68
2022/06/29 09:25:51;;;;;;;3.83;1.55;;;25.80;99.90;;;;;;5036748;28;20025;-68
2022/06/29 09:28:18;;;;;;;4.25;1.60;;;26.30;99.90;;;;;;5036425;28;20021;-68
2022/06/29 09:30:44;;;;;;;10.45;1.30;;;26.50;99.90;;;;;;5036425;28;20092;-69
2022/06/29 09:33:09;;;;;;;2.80;1.30;;;26.50;99.90;;;;;;5035850;28;20473;-68
2022/06/29 09:35:36;;;;;;;4.93;1.50;;;26.50;99.90;;;;;;5036322;28;20522;-68
2022/06/29 09:38:22;;;;;;;4.07;1.20;;;25.90;99.90;;;;;;5044696;28;20025;-68
2022/06/29 09:41:02;;;;;;;2.70;1.48;;;25.20;99.90;;;;;;5034458;28;20022;-68
2022/06/29 09:43:29;;;;;;;14.27;1.77;;;25.10;99.90;;;;;;5046540;28;20048;-68
2022/06/29 09:45:55;;;;;;;5.72;1.45;;;25.40;99.90;;;;;;5056329;28;20045;-68
2022/06/29 09:48:23;;;;;;;8.13;1.38;;;25.80;99.90;;;;;;5055949;28;20520;-68
2022/06/29 09:50:53;;;;;;;3.40;1.60;;;26.10;99.90;;;;;;5056250;28;20048;-68
2022/06/29 09:53:37;;;;;;;3.80;1.70;;;26.20;99.90;;;;;;5055729;28;20025;-68
2022/06/29 09:56:05;;;;;;;2.63;1.52;;;26.10;99.90;;;;;;5055846;28;20484;-68
2022/06/29 09:58:41;;;;;;;4.15;1.65;;;26.10;99.90;;;;;;5050967;28;20025;-68
2022/06/29 10:03:56;;;;;;;5.38;1.30;;;25.90;99.90;;;;;;5036284;28;20101;-68
2022/06/29 10:06:23;;;;;;;5.88;1.63;;;25.80;99.90;;;;;;5036064;28;20040;-68
2022/06/29 10:08:49;;;;;;;2.97;1.38;;;25.60;99.90;;;;;;5035496;28;20025;-68
2022/06/29 10:14:42;;;;;;;4.57;1.38;;;26.60;99.90;;;;;;5031362;28;20037;-67
2022/06/29 10:17:26;;;;;;;2.28;1.05;;;27.00;99.90;;;;;;5055856;28;20377;-68
2022/06/29 10:20:29;;;;;;;3.92;1.60;;;27.30;99.90;;;;;;5055647;28;20029;-68
2022/06/29 10:22:55;;;;;;;2.88;1.60;;;27.40;99.90;;;;;;5047020;28;20112;-68
2022/06/29 10:25:27;;;;;;;2.58;1.40;;;27.40;99.90;;;;;;5035333;28;20126;-68
2022/06/29 10:28:09;;;;;;;4.32;1.40;;;27.60;99.90;;;;;;5035646;28;20068;-68
2022/06/29 10:30:35;;;;;;;4.75;1.63;;;27.70;99.90;;;;;;5035623;28;20029;-68
2022/06/29 10:33:29;;;;;;;5.18;1.73;;;27.70;99.90;;;;;;5035486;28;20465;-68
2022/06/29 10:36:01;;;;;;;3.83;1.70;;;27.80;99.90;;;;;;5035213;28;20496;-68
2022/06/29 10:38:28;;;;;;;2.75;1.48;;;27.90;99.90;;;;;;5035530;28;20056;-68
2022/06/29 10:43:07;;;;;;;5.13;1.67;;;28.00;99.90;;;;;;5035365;28;20082;-67
2022/06/29 10:43:56;;;;;;;4.72;1.33;;;28.10;99.90;;;;;;5034914;28;20383;-68
2022/06/29 10:46:22;;;;;;;3.00;1.30;;;28.10;99.90;;;;;;5035038;28;20025;-68
2022/06/29 10:49:20;;;;;;;7.45;1.80;;;28.40;99.90;;;;;;5049883;28;20029;-67
2022/06/29 10:51:49;;;;;;;8.82;1.30;;;28.50;99.90;;;;;;5055185;28;20025;-68
2022/06/29 10:54:29;;;;;;;4.32;1.30;;;28.10;99.90;;;;;;5054616;28;20033;-68
2022/06/29 10:56:56;;;;;;;3.38;1.45;;;27.80;99.90;;;;;;5055031;28;20017;-68
2022/06/29 10:59:32;;;;;;;7.38;1.65;;;28.20;99.90;;;;;;5054890;28;20029;-68
2022/06/29 11:02:11;;;;;;;2.78;1.23;;;28.30;99.90;;;;;;5054846;28;20108;-68
2022/06/29 11:04:38;;;;;;;4.90;1.25;;;28.40;99.90;;;;;;5054965;28;20443;-68
2022/06/29 11:12:50;;;;;;;2.90;1.48;;;28.10;99.90;;;;;;5054612;28;20028;-69
2022/06/29 11:15:42;;;;;;;3.30;1.27;;;28.20;99.90;;;;;;5054164;28;20013;-69
2022/06/29 11:18:07;;;;;;;3.92;1.38;;;28.70;99.90;;;;;;5054674;28;20029;-69
2022/06/29 11:20:33;;;;;;;2.10;1.13;;;28.90;99.90;;;;;;5053443;28;20484;-69
2022/06/29 11:22:58;;;;;;;4.82;1.30;;;28.70;99.90;;;;;;5054421;28;20036;-69
2022/06/29 11:25:26;;;;;;;6.95;1.80;;;28.70;99.90;;;;;;5054418;28;20350;-68
2022/06/29 11:27:52;;;;;;;11.23;1.60;;;28.80;99.90;;;;;;5054559;28;20025;-69
2022/06/29 11:30:22;;;;;;;1.58;1.00;;;29.10;99.90;;;;;;5054057;28;20032;-68
2022/06/29 11:32:49;;;;;;;3.33;1.50;;;29.20;99.90;;;;;;5037927;28;20021;-68
2022/06/29 11:35:18;;;;;;;6.90;1.27;;;29.60;99.90;;;;;;5034278;28;20025;-68
2022/06/29 11:37:54;;;;;;;4.55;1.50;;;29.80;99.90;;;;;;5034236;28;20057;-68
2022/06/29 11:40:34;;;;;;;3.40;1.50;;;29.80;99.90;;;;;;5034033;28;20544;-69
2022/06/29 11:43:05;;;;;;;5.30;1.48;;;29.70;99.90;;;;;;5040322;28;20056;-69
2022/06/29 11:45:46;;;;;;;3.03;1.25;;;29.50;99.90;;;;;;5035990;28;20121;-68
2022/06/29 11:48:12;;;;;;;10.13;1.42;;;28.90;99.90;;;;;;5047754;28;20025;-68
2022/06/29 11:50:43;;;;;;;6.07;1.55;;;28.40;99.90;;;;;;5033834;28;20044;-68
2022/06/29 11:53:09;;;;;;;7.82;1.50;;;28.50;99.90;;;;;;5033901;28;20079;-68
2022/06/29 11:55:40;;;;;;;4.28;1.40;;;28.50;99.90;;;;;;5033999;28;20025;-69
2022/06/29 11:58:08;;;;;;;7.25;1.65;;;28.70;99.90;;;;;;5034300;28;20029;-68
2022/06/29 12:00:39;;;;;;;4.65;1.08;;;28.80;99.90;;;;;;5047281;28;20029;-68
2022/06/29 12:03:06;;;;;;;5.57;1.30;;;29.10;99.90;;;;;;5053505;28;20025;-68
2022/06/29 12:05:32;;;;;;;4.53;1.27;;;29.60;99.90;;;;;;5053442;28;20024;-68
2022/06/29 12:07:57;;;;;;;5.10;1.30;;;30.20;99.90;;;;;;5053715;28;20112;-68
2022/06/29 12:10:23;;;;;;;4.85;1.60;;;30.80;99.90;;;;;;5053320;28;20024;-69
2022/06/29 12:12:49;;;;;;;5.65;1.10;;;31.10;99.90;;;;;;5053541;28;20124;-69
2022/06/29 12:15:16;;;;;;;2.10;1.17;;;30.90;99.90;;;;;;5053163;28;20044;-69
2022/06/29 12:17:43;;;;;;;3.70;1.30;;;30.90;99.90;;;;;;5053614;28;20017;-69
2022/06/29 12:20:09;;;;;;;4.68;1.40;;;30.40;99.90;;;;;;5053814;28;20033;-69
2022/06/29 12:22:35;;;;;;;13.20;1.83;;;30.40;99.90;;;;;;5053211;28;20029;-68
2022/06/29 12:25:00;;;;;;;4.85;1.50;;;30.50;99.90;;;;;;5053205;28;20047;-68
2022/06/29 12:27:27;;;;;;;9.13;1.38;;;29.80;99.90;;;;;;5053286;28;20503;-68
2022/06/29 12:29:53;;;;;;;5.82;1.42;;;30.10;99.90;;;;;;5053084;28;20064;-68
2022/06/29 12:32:19;;;;;;;9.60;1.55;;;30.20;99.90;;;;;;5058919;28;20035;-69
2022/06/29 12:34:44;;;;;;;4.93;1.00;;;30.90;99.90;;;;;;5059652;28;20391;-69
2022/06/29 12:37:10;;;;;;;7.40;1.40;;;31.60;99.90;;;;;;5053061;28;20111;-69
2022/06/29 12:39:35;;;;;;;7.80;1.58;;;31.20;99.90;;;;;;5040131;28;20025;-69
2022/06/29 12:42:03;;;;;;;5.47;1.40;;;30.80;99.90;;;;;;5039788;28;20026;-69
2022/06/29 12:44:29;;;;;;;5.30;1.50;;;30.90;99.90;;;;;;5058150;28;20112;-69
2022/06/29 12:46:54;;;;;;;3.55;0.98;;;31.50;99.90;;;;;;5059710;28;20441;-68
2022/06/29 12:49:20;;;;;;;4.43;1.10;;;31.90;99.90;;;;;;5059560;28;20071;-68
2022/06/29 12:51:46;;;;;;;6.50;1.25;;;31.20;99.90;;;;;;5059997;28;20100;-68
2022/06/29 12:54:12;;;;;;;4.55;1.25;;;31.00;99.90;;;;;;5104979;23;20037;-70
2022/06/29 12:56:38;;;;;;;8.00;1.33;;;31.50;99.90;;;;;;5080078;28;20025;-70
2022/06/29 12:59:04;;;;;;;6.60;1.33;;;32.10;99.90;;;;;;5079910;28;20464;-71